createdAt,value
2022-08-10T00:00:56.440Z,1.48
2022-08-10T00:03:23.402Z,1.55
2022-08-10T00:05:53.197Z,1.20
2022-08-10T00:08:24.053Z,1.33
2022-08-10T00:10:52.863Z,1.40
2022-08-10T00:13:19.832Z,1.52
2022-08-10T00:15:53.740Z,1.50
2022-08-10T00:18:35.693Z,2.38
2022-08-10T00:21:06.087Z,1.67
2022-08-10T00:23:33.597Z,1.50
2022-08-10T00:26:00.609Z,1.40
2022-08-10T00:28:27.540Z,1.30
2022-08-10T00:30:54.474Z,1.30
2022-08-10T00:33:21.495Z,1.40
2022-08-10T00:35:48.774Z,1.75
2022-08-10T00:38:15.710Z,1.60
2022-08-10T00:40:42.608Z,1.70
2022-08-10T00:43:09.455Z,1.92
2022-08-10T00:45:36.696Z,2.22
2022-08-10T00:48:03.832Z,1.63
2022-08-10T00:50:30.740Z,2.03
2022-08-10T00:52:57.618Z,2.03
2022-08-10T00:55:24.673Z,1.60
2022-08-10T00:57:54.807Z,1.73
2022-08-10T01:00:23.918Z,1.67
2022-08-10T01:02:51.339Z,1.80
2022-08-10T01:05:20.376Z,1.95
2022-08-10T01:07:56.902Z,1.73
2022-08-10T01:10:50.377Z,1.90
2022-08-10T01:13:31.494Z,2.00
2022-08-10T01:16:13.385Z,1.92
2022-08-10T01:18:53.724Z,1.75
2022-08-10T01:21:34.046Z,1.80
2022-08-10T01:24:23.194Z,1.77
2022-08-10T01:27:27.413Z,2.30
2022-08-10T01:29:54.868Z,1.92
2022-08-10T01:32:47.510Z,1.77
2022-08-10T01:35:19.967Z,2.15
2022-08-10T01:37:59.714Z,2.15
2022-08-10T01:40:27.721Z,1.98
2022-08-10T01:42:56.079Z,1.90
2022-08-10T01:45:44.827Z,2.05
2022-08-10T01:48:31.157Z,1.83
2022-08-10T01:51:19.209Z,1.90
2022-08-10T01:53:52.116Z,2.10
2022-08-10T01:56:21.259Z,1.88
2022-08-10T01:59:04.403Z,2.65
2022-08-10T02:01:40.284Z,1.83
2022-08-10T02:04:12.227Z,1.50
2022-08-10T02:06:46.725Z,1.75
2022-08-10T02:09:18.632Z,1.70
2022-08-10T02:12:05.946Z,2.00
2022-08-10T02:14:43.601Z,1.75
2022-08-10T02:18:00.139Z,1.77
2022-08-10T02:20:00.246Z,1.80
2022-08-10T02:22:37.778Z,1.98
2022-08-10T02:25:09.032Z,1.80
2022-08-10T02:27:36.274Z,2.28
2022-08-10T02:30:03.945Z,1.65
2022-08-10T02:32:38.560Z,2.08
2022-08-10T02:35:13.216Z,1.67
2022-08-10T02:37:50.520Z,2.08
2022-08-10T02:45:01.157Z,2.15
2022-08-10T02:45:20.986Z,2.53
2022-08-10T02:46:13.667Z,2.10
2022-08-10T02:48:46.843Z,2.03
2022-08-10T02:52:06.695Z,2.13
2022-08-10T02:54:16.848Z,2.10
2022-08-10T02:56:51.487Z,1.90
2022-08-10T02:59:39.979Z,2.33
2022-08-10T03:02:08.499Z,1.88
2022-08-10T03:04:55.138Z,2.08
2022-08-10T03:07:43.033Z,1.83
2022-08-10T03:10:19.957Z,2.10
2022-08-10T03:12:49.916Z,2.20
2022-08-10T03:15:18.642Z,1.85
2022-08-10T03:17:57.040Z,1.88
2022-08-10T03:20:39.598Z,2.05
2022-08-10T03:23:21.119Z,1.90
2022-08-10T03:25:54.189Z,2.03
2022-08-10T03:30:49.203Z,1.60
2022-08-10T03:33:16.107Z,2.08
2022-08-10T03:35:43.022Z,1.88
2022-08-10T03:38:29.915Z,1.90
2022-08-10T03:40:57.888Z,2.03
2022-08-10T03:43:24.776Z,1.50
2022-08-10T03:45:55.221Z,1.77
2022-08-10T03:48:44.772Z,1.88
2022-08-10T03:51:13.927Z,1.85
2022-08-10T03:54:03.517Z,1.85
2022-08-10T03:56:31.945Z,1.48
2022-08-10T03:58:59.698Z,1.95
2022-08-10T04:02:52.871Z,2.60
2022-08-10T04:04:17.756Z,1.98
2022-08-10T04:06:51.386Z,2.20
2022-08-10T04:09:21.561Z,1.77
2022-08-10T04:11:48.419Z,2.10
2022-08-10T04:14:47.356Z,1.90
2022-08-10T04:17:02.237Z,1.85
2022-08-10T04:19:29.210Z,2.38
2022-08-10T04:22:15.277Z,1.95
2022-08-10T04:24:42.421Z,1.80
2022-08-10T04:27:09.517Z,2.13
2022-08-10T04:29:36.549Z,1.73
2022-08-10T04:32:03.572Z,1.67
2022-08-10T04:34:33.895Z,2.25
2022-08-10T04:37:08.594Z,1.90
2022-08-10T04:39:36.276Z,1.77
2022-08-10T04:42:03.834Z,2.08
2022-08-10T04:44:31.121Z,2.20
2022-08-10T04:46:59.228Z,2.00
2022-08-10T04:49:54.846Z,2.50
2022-08-10T04:52:14.125Z,1.92
2022-08-10T04:54:41.790Z,2.67
2022-08-10T04:57:09.010Z,2.60
2022-08-10T04:59:36.189Z,2.70
2022-08-10T05:02:30.357Z,2.28
2022-08-10T05:04:49.998Z,2.60
2022-08-10T05:07:18.680Z,2.42
2022-08-10T05:10:03.847Z,2.40
2022-08-10T05:12:37.930Z,2.75
2022-08-10T05:15:09.540Z,2.08
2022-08-10T05:17:36.544Z,2.20
2022-08-10T05:20:07.438Z,2.72
2022-08-10T05:22:40.051Z,2.60
2022-08-10T05:25:11.690Z,2.75
2022-08-10T05:27:39.422Z,2.38
2022-08-10T05:30:07.622Z,2.30
2022-08-10T05:32:58.573Z,2.55
2022-08-10T05:35:22.298Z,2.33
2022-08-10T05:38:13.460Z,2.60
2022-08-10T05:40:39.247Z,2.60
2022-08-10T05:43:06.148Z,2.22
2022-08-10T05:45:33.069Z,2.83
2022-08-10T05:48:54.953Z,2.50
2022-08-10T05:50:46.909Z,2.50
2022-08-10T05:53:58.995Z,2.33
2022-08-10T05:56:01.419Z,2.47
2022-08-10T05:58:28.297Z,2.75
2022-08-10T06:00:56.230Z,2.50
2022-08-10T06:03:28.039Z,2.47
2022-08-10T06:05:55.727Z,2.35
2022-08-10T06:08:24.906Z,3.05
2022-08-10T06:12:27.948Z,3.03
2022-08-10T06:14:15.839Z,3.28
2022-08-10T06:16:44.182Z,2.80
2022-08-10T06:19:14.611Z,3.05
2022-08-10T06:22:00.323Z,2.97
2022-08-10T06:24:30.619Z,2.50
2022-08-10T06:26:58.854Z,3.15
2022-08-10T06:29:25.714Z,2.90
2022-08-10T06:31:52.618Z,2.80
2022-08-10T06:34:34.020Z,3.38
2022-08-10T06:37:03.448Z,2.90
2022-08-10T06:39:34.073Z,3.15
2022-08-10T06:42:29.805Z,3.78
2022-08-10T06:45:12.938Z,3.75
2022-08-10T06:47:46.373Z,2.80
2022-08-10T06:53:02.469Z,3.10
2022-08-10T06:55:49.572Z,3.60
2022-08-10T06:58:16.207Z,2.72
2022-08-10T07:00:43.173Z,3.10
2022-08-10T07:03:11.525Z,2.85
2022-08-10T07:05:40.837Z,3.00
2022-08-10T07:08:09.799Z,3.35
2022-08-10T07:10:41.306Z,2.85
2022-08-10T07:13:12.644Z,2.83
2022-08-10T07:15:59.642Z,3.97
2022-08-10T07:18:26.443Z,2.70
2022-08-10T07:20:55.963Z,2.90
2022-08-10T07:23:57.663Z,2.88
2022-08-10T07:26:10.109Z,2.55
2022-08-10T07:28:36.975Z,2.70
2022-08-10T07:31:03.852Z,2.70
2022-08-10T07:33:52.461Z,1.95
2022-08-10T07:36:20.473Z,2.22
2022-08-10T07:38:47.428Z,2.70
2022-08-10T07:41:14.763Z,2.53
2022-08-10T07:43:45.579Z,3.10
2022-08-10T07:46:14.314Z,2.40
2022-08-10T07:48:44.090Z,2.60
2022-08-10T07:51:11.186Z,2.17
2022-08-10T07:53:43.164Z,3.28
2022-08-10T07:56:26.040Z,2.40
2022-08-10T07:59:26.517Z,2.65
2022-08-10T08:01:54.580Z,1.98
2022-08-10T08:04:22.589Z,2.30
2022-08-10T08:06:49.676Z,2.75
2022-08-10T08:09:16.529Z,2.40
2022-08-10T08:11:44.546Z,1.73
2022-08-10T08:14:11.707Z,2.28
2022-08-10T08:16:40.653Z,2.22
2022-08-10T08:19:28.228Z,2.08
2022-08-10T08:24:05.155Z,2.15
2022-08-10T08:24:42.333Z,2.17
2022-08-10T08:27:09.799Z,1.92
2022-08-10T08:29:39.196Z,1.90
2022-08-10T08:32:06.435Z,2.95
2022-08-10T08:34:34.488Z,1.92
2022-08-10T08:37:01.395Z,1.80
2022-08-10T08:39:29.039Z,1.60
2022-08-10T08:42:17.528Z,2.00
2022-08-10T08:45:06.360Z,1.50
2022-08-10T08:48:05.270Z,1.30
2022-08-10T08:51:12.231Z,1.40
2022-08-10T08:54:08.349Z,1.60
2022-08-10T08:56:50.161Z,1.40
2022-08-10T08:59:25.597Z,1.80
2022-08-10T09:02:35.174Z,1.70
2022-08-10T09:05:14.473Z,1.60
2022-08-10T09:08:01.707Z,1.77
2022-08-10T09:10:52.847Z,1.45
2022-08-10T09:13:41.285Z,1.60
2022-08-10T09:16:27.864Z,1.52
2022-08-10T09:19:08.630Z,1.33
2022-08-10T09:22:18.464Z,1.10
2022-08-10T09:25:20.745Z,1.38
2022-08-10T09:27:50.281Z,1.13
2022-08-10T09:31:10.960Z,0.93
2022-08-10T09:36:26.581Z,0.90
2022-08-10T09:37:11.433Z,1.88
2022-08-10T09:40:06.620Z,1.23
2022-08-10T09:43:26.572Z,1.00
2022-08-10T09:46:27.924Z,0.90
2022-08-10T09:49:05.630Z,1.10
2022-08-10T09:51:57.793Z,1.00
2022-08-10T09:54:48.580Z,1.52
2022-08-10T09:57:54.769Z,1.10
2022-08-10T10:00:21.401Z,0.80
2022-08-10T10:03:26.326Z,1.00
2022-08-10T10:06:10.978Z,1.08
2022-08-10T10:09:10.558Z,1.38
2022-08-10T10:12:10.170Z,1.65
2022-08-10T10:15:24.989Z,0.70
2022-08-10T10:18:07.876Z,1.25
2022-08-10T10:20:58.592Z,0.82
2022-08-10T10:24:21.395Z,2.15
2022-08-10T10:27:00.256Z,1.17
2022-08-10T10:29:58.670Z,0.70
2022-08-10T10:32:36.890Z,0.50
2022-08-10T10:35:31.006Z,0.60
2022-08-10T10:38:10.408Z,0.77
2022-08-10T10:41:28.619Z,0.50
2022-08-10T10:43:59.714Z,0.75
2022-08-10T10:46:44.610Z,0.70
2022-08-10T10:49:43.272Z,1.25
2022-08-10T10:52:19.369Z,1.00
2022-08-10T10:55:11.056Z,1.23
2022-08-10T10:57:58.643Z,0.80
2022-08-10T11:00:37.158Z,1.75
2022-08-10T11:03:24.021Z,0.70
2022-08-10T11:06:11.878Z,1.10
2022-08-10T11:08:43.521Z,0.63
2022-08-10T11:11:25.317Z,0.73
2022-08-10T11:14:24.597Z,1.17
2022-08-10T11:17:01.495Z,0.70
2022-08-10T11:20:01.575Z,0.57
2022-08-10T11:22:37.178Z,0.50
2022-08-10T11:25:24.049Z,0.77
2022-08-10T11:27:54.664Z,0.68
2022-08-10T11:30:33.903Z,0.50
2022-08-10T11:33:32.670Z,0.60
2022-08-10T11:36:04.381Z,0.90
2022-08-10T11:39:14.325Z,0.65
2022-08-10T11:42:08.589Z,0.60
2022-08-10T11:44:45.681Z,0.60
2022-08-10T11:47:17.012Z,0.80
2022-08-10T11:49:49.970Z,1.10
2022-08-10T11:52:33.554Z,0.75
2022-08-10T11:55:06.210Z,1.08
2022-08-10T11:57:53.505Z,0.90
2022-08-10T12:00:20.448Z,0.50
2022-08-10T12:02:58.463Z,0.85
2022-08-10T12:05:54.599Z,0.75
2022-08-10T12:10:03.727Z,0.70
2022-08-10T12:11:05.845Z,0.70
2022-08-10T12:13:58.522Z,1.35
2022-08-10T12:16:31.874Z,0.60
2022-08-10T12:19:18.827Z,0.73
2022-08-10T12:21:48.172Z,0.60
2022-08-10T12:24:18.199Z,0.80
2022-08-10T12:26:46.301Z,0.82
2022-08-10T12:29:27.922Z,1.00
2022-08-10T12:32:05.272Z,0.73
2022-08-10T12:34:58.812Z,0.80
2022-08-10T12:37:35.671Z,0.82
2022-08-10T12:40:36.909Z,0.98
2022-08-10T12:44:04.407Z,0.90
2022-08-10T12:46:22.815Z,1.10
2022-08-10T12:49:36.250Z,1.00
2022-08-10T12:52:13.241Z,1.10
2022-08-10T12:54:41.801Z,0.98
2022-08-10T12:57:29.107Z,0.95
2022-08-10T12:59:58.689Z,1.52
2022-08-10T13:02:28.198Z,1.15
2022-08-10T13:04:57.262Z,1.10
2022-08-10T13:08:25.770Z,1.17
2022-08-10T13:10:17.230Z,1.00
2022-08-10T13:12:50.792Z,1.20
2022-08-10T13:15:49.167Z,1.20
2022-08-10T13:18:23.610Z,1.45
2022-08-10T13:20:52.208Z,1.13
2022-08-10T13:23:27.034Z,1.30
2022-08-10T13:25:55.791Z,1.10
2022-08-10T13:28:39.817Z,1.30
2022-08-10T13:31:16.363Z,1.40
2022-08-10T13:34:41.144Z,1.50
2022-08-10T13:36:42.311Z,1.70
2022-08-10T13:39:09.544Z,1.30
2022-08-10T13:41:39.741Z,1.30
2022-08-10T13:44:07.503Z,1.60
2022-08-10T13:46:37.867Z,1.30
2022-08-10T13:49:04.792Z,1.30
2022-08-10T13:51:56.622Z,1.30
2022-08-10T13:54:18.966Z,1.40
2022-08-10T13:56:47.208Z,1.50
2022-08-10T13:59:16.272Z,1.30
2022-08-10T14:01:49.121Z,3.97
2022-08-10T14:04:16.379Z,1.40
2022-08-10T14:06:48.485Z,1.92
2022-08-10T14:09:17.683Z,1.83
2022-08-10T14:11:46.286Z,2.60
2022-08-10T14:14:18.289Z,2.28
2022-08-10T14:16:45.455Z,3.90
2022-08-10T14:19:17.499Z,1.60
2022-08-10T14:21:44.446Z,1.60
2022-08-10T14:24:21.750Z,1.50
2022-08-10T14:26:49.485Z,1.55
2022-08-10T14:29:19.610Z,1.52
2022-08-10T14:32:01.974Z,1.58
2022-08-10T14:34:59.528Z,1.58
2022-08-10T14:37:23.941Z,1.60
2022-08-10T14:39:55.306Z,1.60
2022-08-10T14:42:27.710Z,1.70
2022-08-10T14:45:03.245Z,2.53
2022-08-10T14:47:53.790Z,1.63
2022-08-10T14:50:31.839Z,1.77
2022-08-10T14:53:15.178Z,1.80
2022-08-10T14:55:59.394Z,1.60
2022-08-10T14:58:31.910Z,1.73
2022-08-10T15:00:58.963Z,1.80
2022-08-10T15:03:58.629Z,1.50
2022-08-10T15:06:18.090Z,1.45
2022-08-10T15:08:47.065Z,1.55
2022-08-10T15:12:15.809Z,1.67
2022-08-10T15:14:41.103Z,1.77
2022-08-10T15:16:49.780Z,1.60
2022-08-10T15:20:01.114Z,1.60
2022-08-10T15:22:18.079Z,1.67
2022-08-10T15:25:05.569Z,1.60
2022-08-10T15:27:55.043Z,1.70
2022-08-10T15:30:30.216Z,1.50
2022-08-10T15:33:21.360Z,1.63
2022-08-10T15:36:27.303Z,2.30
2022-08-10T15:39:01.817Z,1.70
2022-08-10T15:41:59.230Z,1.50
2022-08-10T15:44:40.765Z,1.38
2022-08-10T15:47:27.744Z,1.50
2022-08-10T15:50:19.984Z,1.52
2022-08-10T15:53:01.800Z,1.55
2022-08-10T15:55:43.526Z,1.40
2022-08-10T15:58:38.695Z,1.40
2022-08-10T16:02:13.027Z,1.40
2022-08-10T16:04:22.110Z,1.30
2022-08-10T16:07:11.191Z,1.73
2022-08-10T16:10:10.810Z,1.63
2022-08-10T16:12:34.581Z,1.70
2022-08-10T16:15:11.866Z,1.70
2022-08-10T16:17:56.270Z,1.38
2022-08-10T16:20:54.612Z,1.33
2022-08-10T16:23:29.823Z,1.65
2022-08-10T16:26:04.520Z,1.67
2022-08-10T16:28:34.594Z,1.20
2022-08-10T16:31:03.981Z,1.23
2022-08-10T16:33:53.128Z,1.08
2022-08-10T16:36:19.318Z,1.30
2022-08-10T16:38:48.098Z,1.52
2022-08-10T16:42:03.031Z,1.23
2022-08-10T16:44:02.364Z,1.33
2022-08-10T16:46:29.630Z,1.20
2022-08-10T16:48:56.731Z,1.33
2022-08-10T16:51:23.972Z,1.50
2022-08-10T16:53:51.840Z,1.40
2022-08-10T16:56:24.347Z,1.48
2022-08-10T16:58:55.482Z,1.58
2022-08-10T17:01:25.076Z,2.15
2022-08-10T17:04:06.326Z,1.85
2022-08-10T17:06:43.036Z,1.40
2022-08-10T17:09:16.235Z,1.20
2022-08-10T17:11:46.503Z,1.30
2022-08-10T17:14:13.612Z,1.52
2022-08-10T17:16:44.758Z,1.30
2022-08-10T17:19:16.254Z,1.10
2022-08-10T17:21:51.828Z,1.42
2022-08-10T17:24:21.008Z,1.50
2022-08-10T17:26:47.973Z,1.27
2022-08-10T17:29:58.549Z,1.17
2022-08-10T17:32:13.114Z,1.10
2022-08-10T17:34:44.625Z,1.00
2022-08-10T17:37:16.107Z,1.10
2022-08-10T17:39:46.394Z,1.08
2022-08-10T17:42:17.011Z,1.30
2022-08-10T17:44:46.817Z,1.10
2022-08-10T17:47:13.704Z,1.17
2022-08-10T17:49:40.602Z,1.00
2022-08-10T17:52:08.504Z,0.98
2022-08-10T17:54:45.611Z,1.17
2022-08-10T17:57:18.774Z,1.73
2022-08-10T17:59:46.174Z,3.40
2022-08-10T18:02:16.533Z,6.30
2022-08-10T18:04:47.947Z,7.68
2022-08-10T18:07:14.922Z,9.63
2022-08-10T18:09:52.484Z,11.65
2022-08-10T18:12:36.079Z,11.30
2022-08-10T18:15:12.201Z,11.82
2022-08-10T18:17:49.444Z,11.85
2022-08-10T18:20:19.841Z,10.95
2022-08-10T18:22:49.184Z,10.55
2022-08-10T18:25:35.709Z,8.73
2022-08-10T18:28:05.518Z,5.75
2022-08-10T18:30:36.244Z,4.75
2022-08-10T18:33:04.284Z,3.47
2022-08-10T18:35:34.815Z,2.38
2022-08-10T18:38:02.110Z,1.88
2022-08-10T18:40:36.286Z,1.65
2022-08-10T18:43:11.511Z,1.50
2022-08-10T18:45:53.508Z,1.00
2022-08-10T18:48:22.692Z,1.00
2022-08-10T18:50:53.728Z,0.75
2022-08-10T18:53:48.034Z,1.00
2022-08-10T18:56:21.375Z,0.70
2022-08-10T19:01:43.390Z,0.80
2022-08-10T19:04:22.285Z,1.00
2022-08-10T19:07:05.604Z,1.20
2022-08-10T19:09:48.510Z,0.68
2022-08-10T19:12:49.646Z,0.80
2022-08-10T19:15:19.286Z,1.02
2022-08-10T19:18:07.990Z,1.13
2022-08-10T19:20:47.119Z,1.05
2022-08-10T19:23:26.252Z,0.77
2022-08-10T19:26:33.010Z,0.90
2022-08-10T19:29:04.938Z,0.68
2022-08-10T19:31:44.399Z,1.00
2022-08-10T19:34:20.451Z,0.70
2022-08-10T19:36:53.219Z,0.90
2022-08-10T19:39:27.512Z,0.73
2022-08-10T19:42:11.641Z,1.15
2022-08-10T19:47:32.571Z,0.85
2022-08-10T19:50:11.537Z,0.85
2022-08-10T19:52:56.681Z,1.00
2022-08-10T19:55:47.825Z,0.70
2022-08-10T19:58:40.612Z,0.80
2022-08-10T20:01:07.627Z,0.77
2022-08-10T20:04:03.149Z,1.30
2022-08-10T20:06:43.715Z,1.17
2022-08-10T20:09:43.512Z,1.10
2022-08-10T20:12:23.741Z,1.48
2022-08-10T20:15:10.349Z,1.20
2022-08-10T20:17:57.617Z,1.10
2022-08-10T20:20:34.816Z,1.35
2022-08-10T20:23:15.915Z,1.00
2022-08-10T20:26:17.943Z,1.38
2022-08-10T20:29:05.787Z,1.10
2022-08-10T20:31:45.684Z,1.15
2022-08-10T20:34:19.496Z,1.15
2022-08-10T20:37:06.939Z,0.90
2022-08-10T20:39:50.252Z,1.42
2022-08-10T20:42:23.195Z,0.80
2022-08-10T20:45:06.236Z,0.90
2022-08-10T20:47:36.928Z,0.93
2022-08-10T20:50:35.435Z,1.17
2022-08-10T20:53:24.700Z,1.37
2022-08-10T20:55:52.678Z,1.00
2022-08-10T20:58:48.044Z,1.63
2022-08-10T21:04:46.920Z,1.15
2022-08-10T21:07:44.042Z,0.93
2022-08-10T21:10:14.859Z,0.98
2022-08-10T21:12:57.816Z,1.17
2022-08-10T21:15:52.176Z,0.90
2022-08-10T21:18:25.380Z,0.90
2022-08-10T21:20:59.507Z,0.95
2022-08-10T21:23:30.587Z,1.08
2022-08-10T21:26:18.152Z,1.27
2022-08-10T21:29:07.245Z,0.90
2022-08-10T21:31:48.572Z,1.02
2022-08-10T21:34:41.075Z,0.85
2022-08-10T21:37:56.452Z,1.17
2022-08-10T21:41:18.662Z,1.35
2022-08-10T21:44:23.952Z,1.52
2022-08-10T21:47:27.172Z,1.25
2022-08-10T21:50:27.369Z,1.00
2022-08-10T21:53:45.139Z,0.80
2022-08-10T21:56:39.916Z,1.10
2022-08-10T21:59:34.918Z,1.13
2022-08-10T22:02:28.011Z,1.20
2022-08-10T22:05:21.219Z,1.40
2022-08-10T22:08:12.039Z,1.23
2022-08-10T22:11:08.772Z,1.50
2022-08-10T22:14:05.045Z,1.48
2022-08-10T22:17:01.022Z,1.08
2022-08-10T22:19:50.347Z,1.30
2022-08-10T22:22:44.448Z,1.92
2022-08-10T22:26:06.698Z,1.55
2022-08-10T22:29:00.796Z,1.35
2022-08-10T22:32:06.316Z,1.35
2022-08-10T22:35:21.522Z,1.27
2022-08-10T22:38:33.359Z,1.15
2022-08-10T22:41:58.269Z,1.65
2022-08-10T22:44:43.463Z,1.77
2022-08-10T22:47:30.130Z,1.40
2022-08-10T22:50:03.427Z,1.25
2022-08-10T22:53:01.882Z,1.67
2022-08-10T22:55:51.100Z,1.52
2022-08-10T22:58:36.319Z,1.30
2022-08-10T23:01:13.585Z,1.60
2022-08-10T23:03:46.507Z,1.42
2022-08-10T23:06:18.263Z,2.15
2022-08-10T23:08:53.183Z,1.65
2022-08-10T23:11:26.992Z,2.03
2022-08-10T23:14:07.079Z,1.48
2022-08-10T23:17:11.650Z,1.88
2022-08-10T23:19:43.038Z,1.42
2022-08-10T23:22:20.017Z,1.50
2022-08-10T23:24:53.820Z,1.73
2022-08-10T23:27:39.078Z,1.90
2022-08-10T23:30:17.563Z,1.55
2022-08-10T23:32:46.827Z,1.90
2022-08-10T23:36:05.702Z,1.85
2022-08-10T23:38:10.727Z,1.60
2022-08-10T23:40:37.698Z,1.77
2022-08-10T23:43:04.659Z,2.25
2022-08-10T23:45:53.021Z,1.98
2022-08-10T23:48:20.109Z,1.85
2022-08-10T23:50:53.420Z,2.28
2022-08-10T23:53:28.233Z,2.28
2022-08-10T23:56:03.933Z,1.70
2022-08-10T23:58:52.977Z,2.50
